Time;durP1;ratioP1;P1;durP2;ratioP2;P2;SDS_P1;SDS_P2;PMS_P1;PMS_P2;Temp;Humidity;BMP_temperature;BMP_pressure;BME280_temperature;BME280_humidity;BME280_pressure;Samples;Min_cycle;Max_cycle;Signal;HPM_P1;HPM_P2
2021/06/15 00:00:34;;;;;;;5.72;2.60;;;17.40;99.90;;;;;;5044530;28;20474;-72
2021/06/15 00:03:00;;;;;;;7.68;2.97;;;17.30;99.90;;;;;;5044594;28;20038;-71
2021/06/15 00:05:25;;;;;;;6.40;2.40;;;17.10;99.90;;;;;;5045410;28;20041;-71
2021/06/15 00:07:51;;;;;;;8.68;3.33;;;17.20;99.90;;;;;;5045404;28;20171;-73
2021/06/15 00:10:27;;;;;;;14.13;2.85;;;17.20;99.90;;;;;;5044751;28;20036;-71
2021/06/15 00:12:55;;;;;;;3.75;2.65;;;17.10;99.90;;;;;;5043978;28;20034;-71
2021/06/15 00:15:21;;;;;;;5.70;2.65;;;17.10;99.90;;;;;;5045352;28;20033;-72
2021/06/15 00:17:48;;;;;;;13.27;3.15;;;17.10;99.90;;;;;;5044705;28;20052;-72
2021/06/15 00:20:14;;;;;;;6.13;2.83;;;17.10;99.90;;;;;;5045133;28;20431;-72
2021/06/15 00:22:41;;;;;;;6.15;2.75;;;17.10;99.90;;;;;;5045170;28;20040;-71
2021/06/15 00:25:09;;;;;;;3.85;2.00;;;17.10;99.90;;;;;;5044668;28;20040;-73
2021/06/15 00:27:34;;;;;;;4.80;2.33;;;17.10;99.90;;;;;;5045097;28;20048;-72
2021/06/15 00:30:00;;;;;;;4.03;2.25;;;17.10;99.90;;;;;;5044988;28;20030;-71
2021/06/15 00:32:26;;;;;;;15.95;2.58;;;17.10;99.90;;;;;;5044801;28;20036;-71
2021/06/15 00:34:51;;;;;;;16.05;2.88;;;17.10;99.90;;;;;;5044461;28;20034;-71
2021/06/15 00:37:17;;;;;;;4.80;2.38;;;17.10;99.90;;;;;;5044690;28;20037;-71
2021/06/15 00:39:43;;;;;;;18.90;2.30;;;17.10;99.90;;;;;;5044834;28;20060;-72
2021/06/15 00:42:08;;;;;;;7.72;2.50;;;17.10;99.90;;;;;;5044869;28;20056;-72
2021/06/15 00:44:35;;;;;;;21.60;3.20;;;17.00;99.90;;;;;;5044530;28;20083;-71
2021/06/15 00:47:01;;;;;;;6.18;2.38;;;17.00;99.90;;;;;;5043586;28;20049;-72
2021/06/15 00:49:32;;;;;;;11.80;2.85;;;16.90;99.90;;;;;;5044732;28;20036;-71
2021/06/15 00:51:58;;;;;;;6.55;2.35;;;16.90;99.90;;;;;;5054626;28;20026;-71
2021/06/15 00:54:24;;;;;;;12.02;2.30;;;16.70;99.90;;;;;;5044774;28;20048;-71
2021/06/15 00:56:50;;;;;;;7.07;2.20;;;16.80;99.90;;;;;;5059214;28;20025;-71
2021/06/15 00:59:17;;;;;;;7.57;2.50;;;16.80;99.90;;;;;;5064305;28;20056;-70
2021/06/15 01:01:42;;;;;;;3.17;2.00;;;16.80;99.90;;;;;;5064423;28;20025;-71
2021/06/15 01:04:08;;;;;;;8.30;2.13;;;16.80;99.90;;;;;;5064397;28;20037;-71
2021/06/15 01:06:34;;;;;;;4.82;2.28;;;16.70;99.90;;;;;;5064511;28;20029;-72
2021/06/15 01:09:09;;;;;;;9.73;1.80;;;16.80;99.90;;;;;;5053718;28;20120;-71
2021/06/15 01:11:50;;;;;;;5.30;2.20;;;16.70;99.90;;;;;;5044492;28;20032;-72
2021/06/15 01:14:34;;;;;;;3.78;1.58;;;16.70;99.90;;;;;;5044674;28;20121;-71
2021/06/15 01:17:15;;;;;;;3.83;1.77;;;16.60;99.90;;;;;;5060156;28;20116;-71
2021/06/15 01:20:15;;;;;;;8.70;1.88;;;16.60;99.90;;;;;;5044002;28;20063;-72
2021/06/15 01:22:43;;;;;;;3.65;1.83;;;16.70;99.90;;;;;;5044427;28;20033;-70
2021/06/15 01:25:47;;;;;;;5.28;2.28;;;16.60;99.90;;;;;;5044310;28;20041;-72
2021/06/15 01:28:27;;;;;;;14.10;2.92;;;16.60;99.90;;;;;;5044063;28;20551;-71
2021/06/15 01:30:55;;;;;;;2.60;1.35;;;16.60;99.90;;;;;;5044334;28;20045;-70
2021/06/15 01:33:23;;;;;;;4.05;1.83;;;16.50;99.90;;;;;;5062000;28;20053;-71
2021/06/15 01:35:51;;;;;;;13.23;2.63;;;16.50;99.90;;;;;;5064350;28;20029;-71
2021/06/15 01:38:21;;;;;;;4.38;1.90;;;16.40;99.90;;;;;;5064395;28;20029;-71
2021/06/15 01:41:07;;;;;;;5.50;2.50;;;16.40;99.90;;;;;;5063940;28;20021;-71
2021/06/15 01:43:39;;;;;;;9.05;2.83;;;16.40;99.90;;;;;;5064511;28;20112;-72
2021/06/15 01:46:08;;;;;;;5.60;2.10;;;16.30;99.90;;;;;;5063642;28;20483;-72
2021/06/15 01:48:52;;;;;;;4.70;1.75;;;16.40;99.90;;;;;;5066720;28;20048;-71
2021/06/15 01:51:19;;;;;;;;;;;16.40;99.90;;;;;;5064921;28;20040;-73
2021/06/15 01:54:10;;;;;;;5.03;1.83;;;16.30;99.90;;;;;;5047678;28;19912;-72
2021/06/15 01:56:38;;;;;;;3.05;1.27;;;16.30;99.90;;;;;;5048246;28;20396;-71
2021/06/15 01:59:07;;;;;;;6.20;1.55;;;16.20;99.90;;;;;;5062972;28;20018;-73
2021/06/15 02:01:45;;;;;;;3.30;1.30;;;16.20;99.90;;;;;;5047740;28;20108;-72
2021/06/15 02:04:12;;;;;;;2.20;1.13;;;16.10;99.90;;;;;;5047390;28;20539;-72
2021/06/15 02:06:42;;;;;;;9.68;1.67;;;16.10;99.90;;;;;;5047658;28;20022;-72
2021/06/15 02:09:09;;;;;;;7.85;1.30;;;16.00;99.90;;;;;;5047329;28;20034;-71
2021/06/15 02:11:36;;;;;;;10.68;1.75;;;16.00;99.90;;;;;;5047891;28;20081;-72
2021/06/15 02:14:04;;;;;;;2.65;1.00;;;16.00;99.90;;;;;;5047400;28;20568;-72
2021/06/15 02:16:30;;;;;;;5.38;1.80;;;16.00;99.90;;;;;;5047410;28;20026;-71
2021/06/15 02:18:57;;;;;;;4.95;1.27;;;16.00;99.90;;;;;;5047416;28;20029;-71
2021/06/15 02:21:24;;;;;;;1.33;0.85;;;16.00;99.90;;;;;;5047014;28;20030;-72
2021/06/15 02:23:54;;;;;;;5.65;1.60;;;15.90;99.90;;;;;;5047191;28;20033;-71
2021/06/15 02:26:22;;;;;;;5.35;1.08;;;16.00;99.90;;;;;;5047362;28;20033;-71
2021/06/15 02:28:48;;;;;;;5.65;2.05;;;16.00;99.90;;;;;;5046997;28;20371;-72
2021/06/15 02:31:25;;;;;;;10.52;1.90;;;16.00;99.90;;;;;;5047182;28;20052;-72
2021/06/15 02:33:53;;;;;;;2.00;1.02;;;15.90;99.90;;;;;;5047053;28;20022;-71
2021/06/15 02:36:47;;;;;;;3.88;1.70;;;15.90;99.90;;;;;;5046706;28;20030;-72
2021/06/15 02:39:36;;;;;;;0.80;0.70;;;15.90;99.90;;;;;;5046196;28;20068;-71
2021/06/15 02:42:08;;;;;;;17.13;1.85;;;15.90;99.90;;;;;;5046572;28;20038;-72
2021/06/15 02:44:39;;;;;;;8.27;1.60;;;15.90;99.90;;;;;;5047077;28;20053;-72
2021/06/15 02:47:06;;;;;;;9.15;1.85;;;15.90;99.90;;;;;;5046570;28;20037;-72
2021/06/15 02:49:37;;;;;;;11.50;1.42;;;15.90;99.90;;;;;;5046609;28;20108;-72
2021/06/15 02:52:15;;;;;;;4.47;1.25;;;15.90;99.90;;;;;;5047007;28;20033;-71
2021/06/15 02:54:46;;;;;;;7.55;1.05;;;15.90;99.90;;;;;;5046889;28;20029;-72
2021/06/15 02:57:14;;;;;;;3.97;1.60;;;15.90;99.90;;;;;;5046489;28;20028;-71
2021/06/15 02:59:41;;;;;;;6.75;1.60;;;15.90;99.90;;;;;;5046548;28;20109;-72
2021/06/15 03:02:06;;;;;;;9.18;1.00;;;15.80;99.90;;;;;;5046757;28;20089;-72
2021/06/15 03:04:32;;;;;;;9.90;2.22;;;15.80;99.90;;;;;;5046449;28;20044;-72
2021/06/15 03:06:58;;;;;;;3.10;1.10;;;15.80;99.90;;;;;;5046613;28;20059;-70
2021/06/15 03:09:24;;;;;;;6.22;1.38;;;15.80;99.90;;;;;;5046491;28;20085;-71
2021/06/15 03:12:09;;;;;;;4.25;0.90;;;15.80;99.90;;;;;;5046120;28;20477;-71
2021/06/15 03:14:35;;;;;;;;;;;15.80;99.90;;;;;;5062341;28;20037;-73
2021/06/15 03:17:04;;;;;;;4.28;1.55;;;15.80;99.90;;;;;;5046271;28;19929;-71
2021/06/15 03:19:39;;;;;;;1.95;0.75;;;15.70;99.90;;;;;;5046269;28;20030;-72
2021/06/15 03:22:10;;;;;;;4.82;0.98;;;15.60;99.90;;;;;;5046403;28;20092;-73
2021/06/15 03:24:43;;;;;;;7.13;1.65;;;15.60;99.90;;;;;;5048708;28;20049;-73
2021/06/15 03:27:19;;;;;;;11.90;1.63;;;15.60;99.90;;;;;;5045921;28;20037;-72
2021/06/15 03:29:46;;;;;;;7.82;1.50;;;15.50;99.90;;;;;;5045723;28;20079;-72
2021/06/15 03:32:15;;;;;;;11.38;1.23;;;15.60;99.90;;;;;;5045475;28;20104;-71
2021/06/15 03:34:51;;;;;;;3.80;1.55;;;15.60;99.90;;;;;;5045818;28;20028;-72
2021/06/15 03:37:27;;;;;;;3.60;1.40;;;15.60;99.90;;;;;;5045490;28;20069;-72
2021/06/15 03:39:56;;;;;;;1.00;0.88;;;15.60;99.90;;;;;;5045709;28;20047;-72
2021/06/15 03:42:28;;;;;;;9.88;1.42;;;15.60;99.90;;;;;;5045917;28;20133;-72
2021/06/15 03:45:03;;;;;;;9.48;1.63;;;15.60;99.90;;;;;;5045334;28;20034;-72
2021/06/15 03:47:31;;;;;;;6.75;1.27;;;15.50;99.90;;;;;;5045239;28;20049;-72
2021/06/15 03:49:58;;;;;;;10.80;2.10;;;15.50;99.90;;;;;;5045628;28;20051;-72
2021/06/15 03:52:28;;;;;;;11.45;1.50;;;15.50;99.90;;;;;;5045185;28;20029;-72
2021/06/15 03:54:56;;;;;;;3.25;1.15;;;15.50;99.90;;;;;;5045836;28;20026;-73
2021/06/15 03:57:26;;;;;;;9.40;1.23;;;15.50;99.90;;;;;;5044238;28;20065;-72
2021/06/15 03:59:55;;;;;;;1.13;0.80;;;15.60;99.90;;;;;;5045413;28;20037;-72
2021/06/15 04:02:22;;;;;;;2.90;1.00;;;15.50;99.90;;;;;;5045593;28;20018;-72
2021/06/15 04:04:50;;;;;;;2.67;1.13;;;15.50;99.90;;;;;;5045119;28;20044;-72
2021/06/15 04:07:19;;;;;;;3.40;1.13;;;15.50;99.90;;;;;;5045082;28;20052;-73
2021/06/15 04:09:47;;;;;;;2.88;0.80;;;15.50;99.90;;;;;;5044785;28;20083;-71
2021/06/15 04:12:13;;;;;;;2.67;1.10;;;15.50;99.90;;;;;;5051381;28;20090;-69
2021/06/15 04:14:43;;;;;;;1.85;1.15;;;15.60;99.90;;;;;;5045329;28;20025;-70
2021/06/15 04:17:10;;;;;;;10.98;1.17;;;15.60;99.90;;;;;;5045412;28;20049;-70
2021/06/15 04:19:41;;;;;;;2.67;0.75;;;15.60;99.90;;;;;;5044830;28;20029;-69
2021/06/15 04:22:12;;;;;;;5.68;1.08;;;15.60;99.90;;;;;;5045104;28;20037;-70
2021/06/15 04:24:40;;;;;;;3.35;0.98;;;15.50;99.90;;;;;;5045065;28;20485;-71
2021/06/15 04:27:06;;;;;;;7.03;0.82;;;15.60;99.90;;;;;;5044966;28;20037;-71
2021/06/15 04:29:32;;;;;;;1.80;0.82;;;15.50;99.90;;;;;;5043935;28;20473;-70
2021/06/15 04:32:04;;;;;;;5.22;1.52;;;15.60;99.90;;;;;;5044833;28;20096;-70
2021/06/15 04:34:34;;;;;;;5.70;1.05;;;15.50;99.90;;;;;;5045074;28;20064;-71
2021/06/15 04:37:04;;;;;;;4.03;0.98;;;15.50;99.90;;;;;;5045097;28;20397;-70
2021/06/15 04:39:37;;;;;;;3.83;0.65;;;15.60;99.90;;;;;;5044785;28;20116;-70
2021/06/15 04:42:11;;;;;;;6.40;1.38;;;15.60;99.90;;;;;;5045143;28;20029;-71
2021/06/15 04:44:43;;;;;;;11.05;1.55;;;15.70;99.90;;;;;;5044871;28;20029;-70
2021/06/15 04:47:28;;;;;;;8.30;1.10;;;15.70;99.90;;;;;;5058079;28;20041;-70
2021/06/15 04:50:09;;;;;;;1.73;0.70;;;15.70;99.90;;;;;;5049641;28;20036;-71
2021/06/15 04:52:36;;;;;;;2.38;0.95;;;15.70;99.90;;;;;;5053346;28;20030;-71
2021/06/15 04:55:04;;;;;;;2.17;0.80;;;15.80;99.90;;;;;;5048405;28;20033;-72
2021/06/15 04:57:37;;;;;;;3.15;1.13;;;15.80;99.90;;;;;;5051236;28;20049;-71
2021/06/15 05:00:04;;;;;;;8.98;1.38;;;15.90;99.90;;;;;;5044450;28;20029;-72
2021/06/15 05:02:30;;;;;;;2.85;1.23;;;15.80;99.90;;;;;;5024973;28;20038;-71
2021/06/15 05:04:57;;;;;;;4.32;1.23;;;15.80;99.90;;;;;;5024870;28;20053;-70
2021/06/15 05:07:23;;;;;;;5.28;1.10;;;15.80;99.90;;;;;;5023239;28;20050;-70
2021/06/15 05:10:03;;;;;;;3.90;0.85;;;15.80;99.90;;;;;;5030532;28;20033;-69
2021/06/15 05:12:36;;;;;;;2.65;1.05;;;15.80;99.90;;;;;;5064717;28;20501;-71
2021/06/15 05:15:05;;;;;;;5.10;1.27;;;15.80;99.90;;;;;;5064441;28;20032;-72
2021/06/15 05:17:31;;;;;;;1.30;0.80;;;15.90;99.90;;;;;;5063181;28;20119;-70
2021/06/15 05:19:57;;;;;;;1.95;0.73;;;15.90;99.90;;;;;;5064379;28;20029;-71
2021/06/15 05:22:27;;;;;;;2.00;0.80;;;16.00;99.90;;;;;;5048946;28;20057;-71
2021/06/15 05:24:54;;;;;;;2.75;1.38;;;16.00;99.90;;;;;;5043845;28;20022;-70
2021/06/15 05:27:25;;;;;;;3.08;1.38;;;16.00;99.90;;;;;;5028261;28;20026;-71
2021/06/15 05:29:52;;;;;;;3.15;1.08;;;16.10;99.90;;;;;;5046903;28;20021;-72
2021/06/15 05:32:18;;;;;;;2.03;1.10;;;16.10;99.90;;;;;;5068860;28;20075;-71
2021/06/15 05:34:43;;;;;;;1.65;0.82;;;16.10;99.90;;;;;;5068017;28;20025;-71
2021/06/15 05:37:10;;;;;;;5.75;1.05;;;16.10;99.90;;;;;;5046974;28;20120;-70
2021/06/15 05:39:37;;;;;;;0.65;0.45;;;16.10;99.90;;;;;;5051634;28;20108;-71
2021/06/15 05:42:07;;;;;;;2.13;1.27;;;16.20;99.90;;;;;;5068107;28;20052;-71
2021/06/15 05:44:34;;;;;;;1.33;0.75;;;16.20;99.90;;;;;;5067955;28;20029;-70
2021/06/15 05:46:59;;;;;;;0.63;0.60;;;16.30;99.90;;;;;;5067877;28;20036;-71
2021/06/15 05:49:25;;;;;;;1.45;0.50;;;16.30;99.90;;;;;;5050195;28;20042;-71
2021/06/15 05:51:57;;;;;;;1.40;0.60;;;16.30;99.90;;;;;;5047880;28;20424;-70
2021/06/15 05:54:22;;;;;;;4.60;1.38;;;16.30;99.90;;;;;;5047759;28;20052;-71
2021/06/15 05:56:48;;;;;;;8.25;1.10;;;16.40;99.90;;;;;;5047587;28;20053;-71
2021/06/15 05:59:13;;;;;;;5.93;1.52;;;16.40;99.90;;;;;;5047558;28;20029;-70
2021/06/15 06:01:41;;;;;;;1.95;0.82;;;16.40;99.90;;;;;;5047488;28;20075;-71
2021/06/15 06:04:09;;;;;;;2.08;0.90;;;16.50;99.90;;;;;;5047311;28;20021;-71
2021/06/15 06:09:19;;;;;;;3.28;0.98;;;16.50;99.90;;;;;;5067385;28;20048;-71
2021/06/15 06:11:44;;;;;;;2.45;0.75;;;16.60;99.90;;;;;;5067051;28;20025;-71
2021/06/15 06:14:11;;;;;;;7.82;1.02;;;16.60;99.90;;;;;;5067605;28;20029;-72
2021/06/15 06:16:42;;;;;;;2.90;0.80;;;16.70;99.90;;;;;;5067592;28;20033;-72
2021/06/15 06:19:08;;;;;;;1.45;0.68;;;16.80;99.90;;;;;;5066875;28;20477;-71
2021/06/15 06:21:35;;;;;;;2.08;0.60;;;16.80;99.90;;;;;;5067411;28;20021;-71
2021/06/15 06:24:02;;;;;;;1.98;0.63;;;16.90;99.90;;;;;;5067260;28;20032;-71
2021/06/15 06:26:29;;;;;;;2.53;0.80;;;16.90;99.90;;;;;;5056180;28;20028;-70
2021/06/15 06:28:55;;;;;;;8.45;1.15;;;16.90;99.90;;;;;;5062294;28;20037;-71
2021/06/15 06:31:21;;;;;;;3.75;0.93;;;16.90;99.90;;;;;;5046918;28;20056;-72
2021/06/15 06:33:47;;;;;;;5.07;0.70;;;17.00;99.90;;;;;;5046353;28;20056;-71
2021/06/15 06:36:13;;;;;;;2.40;1.40;;;17.00;99.90;;;;;;5047247;28;20050;-70
2021/06/15 06:38:39;;;;;;;1.50;0.55;;;16.90;99.90;;;;;;5046847;28;20386;-72
2021/06/15 06:41:05;;;;;;;4.57;1.02;;;16.70;99.90;;;;;;5047105;28;20025;-71
2021/06/15 06:43:31;;;;;;;8.85;1.27;;;16.80;99.90;;;;;;5047068;28;20029;-70
2021/06/15 06:45:57;;;;;;;6.30;1.70;;;16.80;99.90;;;;;;5049176;28;20036;-72
2021/06/15 06:48:23;;;;;;;2.67;1.00;;;16.80;99.90;;;;;;5054077;28;20065;-70
2021/06/15 06:50:49;;;;;;;4.45;0.68;;;16.80;99.90;;;;;;5045808;28;20029;-70
2021/06/15 06:53:15;;;;;;;4.05;0.90;;;16.90;99.90;;;;;;5045725;28;20032;-69
2021/06/15 06:55:41;;;;;;;2.88;0.80;;;17.10;99.90;;;;;;5046578;28;20034;-71
2021/06/15 06:58:06;;;;;;;0.77;0.70;;;17.20;99.90;;;;;;5046546;28;20048;-70
2021/06/15 07:00:33;;;;;;;2.67;1.00;;;17.30;99.90;;;;;;5046068;28;20469;-70
2021/06/15 07:02:59;;;;;;;11.07;1.55;;;17.40;99.90;;;;;;5046279;28;20025;-69
2021/06/15 07:05:25;;;;;;;3.33;0.73;;;17.50;99.90;;;;;;5059746;28;20087;-69
2021/06/15 07:07:52;;;;;;;1.27;0.73;;;17.50;99.90;;;;;;5055064;28;20045;-68
2021/06/15 07:10:21;;;;;;;3.30;0.90;;;17.60;99.90;;;;;;5054283;28;20028;-70
2021/06/15 07:12:48;;;;;;;1.23;0.57;;;17.70;99.90;;;;;;5055567;28;20025;-69
2021/06/15 07:15:14;;;;;;;3.17;1.15;;;17.70;99.90;;;;;;5060853;28;20038;-70
2021/06/15 07:17:40;;;;;;;3.35;1.00;;;17.80;99.90;;;;;;5060538;28;20045;-71
2021/06/15 07:20:07;;;;;;;12.95;0.80;;;17.80;99.90;;;;;;5045528;28;20092;-73
2021/06/15 07:22:33;;;;;;;4.93;0.77;;;17.80;99.90;;;;;;5045644;28;20034;-70
2021/06/15 07:24:58;;;;;;;4.47;1.00;;;17.80;99.90;;;;;;5046413;28;20525;-70
2021/06/15 07:27:24;;;;;;;6.88;1.23;;;17.80;99.90;;;;;;5045350;28;20080;-70
2021/06/15 07:29:50;;;;;;;1.08;0.75;;;17.90;99.90;;;;;;5045313;28;20030;-71
2021/06/15 07:32:15;;;;;;;1.73;1.00;;;18.00;99.90;;;;;;5045843;28;20025;-70
2021/06/15 07:34:41;;;;;;;8.88;1.13;;;17.90;99.90;;;;;;5045332;28;20045;-71
2021/06/15 07:37:07;;;;;;;1.65;0.80;;;18.00;99.90;;;;;;5045524;28;20061;-71
2021/06/15 07:39:33;;;;;;;4.28;1.48;;;17.90;99.90;;;;;;5049640;28;20076;-71
2021/06/15 07:41:59;;;;;;;16.45;1.52;;;17.80;99.90;;;;;;5060790;28;20029;-70
2021/06/15 07:44:25;;;;;;;4.22;1.10;;;17.80;99.90;;;;;;5045225;28;20685;-70
2021/06/15 07:46:53;;;;;;;7.35;1.55;;;17.80;99.90;;;;;;5045096;28;20033;-69
2021/06/15 07:49:18;;;;;;;6.32;1.65;;;17.80;99.90;;;;;;5059279;28;20053;-71
2021/06/15 07:51:44;;;;;;;5.95;2.03;;;18.00;99.90;;;;;;5045420;28;20030;-70
2021/06/15 07:54:10;;;;;;;2.67;1.27;;;18.30;99.90;;;;;;5045082;28;20030;-70
2021/06/15 07:56:35;;;;;;;4.65;2.20;;;18.20;99.90;;;;;;5060355;28;20025;-71
2021/06/15 07:59:01;;;;;;;2.90;1.73;;;18.20;99.90;;;;;;5045495;28;20026;-70
2021/06/15 08:01:27;;;;;;;4.93;1.63;;;18.20;99.90;;;;;;5045227;28;20029;-69
2021/06/15 08:03:52;;;;;;;5.75;2.22;;;18.00;99.90;;;;;;5045199;28;20029;-69
2021/06/15 08:06:18;;;;;;;3.85;1.60;;;18.00;99.90;;;;;;5060152;28;20063;-71
2021/06/15 08:08:44;;;;;;;1.23;1.08;;;17.90;99.90;;;;;;5044600;28;20041;-70
2021/06/15 08:11:09;;;;;;;3.65;1.70;;;17.80;99.90;;;;;;5043061;28;20036;-70
2021/06/15 08:13:35;;;;;;;3.83;1.58;;;17.80;99.90;;;;;;5045240;28;20034;-71
2021/06/15 08:16:01;;;;;;;1.08;0.93;;;17.90;99.90;;;;;;5044848;28;20527;-71
2021/06/15 08:18:27;;;;;;;7.78;1.67;;;18.00;99.90;;;;;;5045159;28;20043;-72
2021/06/15 08:20:54;;;;;;;1.70;1.13;;;18.30;99.90;;;;;;5045084;28;20073;-71
2021/06/15 08:23:24;;;;;;;3.17;1.48;;;18.40;99.90;;;;;;5044650;28;20044;-71
2021/06/15 08:25:50;;;;;;;5.85;1.95;;;18.60;99.90;;;;;;5044924;28;20038;-71
2021/06/15 08:28:16;;;;;;;4.05;1.20;;;18.60;99.90;;;;;;5044506;28;20041;-73
2021/06/15 08:30:42;;;;;;;2.17;1.10;;;18.60;99.90;;;;;;5043284;28;20037;-71
2021/06/15 08:33:08;;;;;;;1.65;1.20;;;18.50;99.90;;;;;;5045021;28;20033;-70
2021/06/15 08:35:34;;;;;;;3.33;1.23;;;18.40;99.90;;;;;;5044794;28;20030;-71
2021/06/15 08:38:00;;;;;;;2.90;1.38;;;18.40;99.90;;;;;;5060086;28;20527;-69
2021/06/15 08:40:26;;;;;;;7.72;1.58;;;18.40;99.90;;;;;;5044893;28;20111;-70
2021/06/15 08:42:52;;;;;;;2.72;1.27;;;18.60;99.90;;;;;;5059664;28;20112;-69
2021/06/15 08:45:17;;;;;;;3.40;1.02;;;18.60;99.90;;;;;;5044322;28;20092;-70
2021/06/15 08:47:49;;;;;;;4.80;1.30;;;18.60;99.90;;;;;;5043528;28;20057;-69
2021/06/15 08:50:20;;;;;;;4.82;1.55;;;18.50;99.90;;;;;;5044262;28;20032;-69
2021/06/15 08:52:47;;;;;;;6.78;1.10;;;18.60;99.90;;;;;;5044624;28;20086;-70
2021/06/15 08:55:14;;;;;;;5.03;1.02;;;18.90;99.90;;;;;;5043701;28;20021;-69
2021/06/15 08:57:44;;;;;;;6.10;1.42;;;19.20;99.90;;;;;;5024077;28;20029;-71
2021/06/15 09:00:11;;;;;;;1.80;0.70;;;19.40;99.90;;;;;;5041350;28;20503;-71
2021/06/15 09:02:45;;;;;;;1.52;0.70;;;19.60;99.90;;;;;;5042292;28;20039;-72
2021/06/15 09:05:14;;;;;;;6.13;1.08;;;19.50;99.90;;;;;;5043051;28;20030;-70
2021/06/15 09:08:08;;;;;;;7.30;1.45;;;19.40;99.90;;;;;;5043245;28;20038;-71
2021/06/15 09:10:42;;;;;;;1.95;1.17;;;19.20;99.90;;;;;;5042436;28;20041;-72
2021/06/15 09:13:37;;;;;;;2.25;1.13;;;19.30;99.90;;;;;;5041985;28;20030;-72
2021/06/15 09:16:27;;;;;;;5.22;0.93;;;19.50;99.90;;;;;;5043567;28;20033;-72
2021/06/15 09:18:56;;;;;;;0.80;0.60;;;19.80;99.90;;;;;;5043002;28;20688;-70
2021/06/15 09:21:31;;;;;;;2.28;1.02;;;20.00;99.90;;;;;;5042571;28;20037;-71
2021/06/15 09:24:04;;;;;;;2.28;1.13;;;20.20;99.90;;;;;;5042519;28;20823;-71
2021/06/15 09:27:06;;;;;;;6.90;1.17;;;20.10;99.90;;;;;;5043865;28;20032;-69
2021/06/15 09:29:50;;;;;;;3.58;1.30;;;20.30;99.90;;;;;;5044386;28;20096;-70
2021/06/15 09:32:24;;;;;;;3.25;0.77;;;20.60;99.90;;;;;;5043848;28;20029;-71
2021/06/15 09:34:51;;;;;;;1.45;0.68;;;20.80;99.90;;;;;;5044221;28;20034;-70
2021/06/15 09:37:25;;;;;;;5.05;0.98;;;21.00;99.90;;;;;;5044236;28;20025;-71
2021/06/15 09:39:51;;;;;;;2.78;1.17;;;21.20;99.90;;;;;;5043628;28;20028;-70
2021/06/15 09:42:16;;;;;;;5.50;0.88;;;21.40;99.90;;;;;;5044113;28;20104;-71
2021/06/15 09:44:42;;;;;;;4.22;0.77;;;21.50;99.90;;;;;;5044136;28;20037;-72
2021/06/15 09:47:08;;;;;;;3.28;0.95;;;21.30;99.90;;;;;;5043348;28;20069;-71
2021/06/15 09:49:39;;;;;;;5.65;1.48;;;21.00;99.90;;;;;;5044118;28;20041;-72
2021/06/15 09:52:27;;;;;;;3.00;1.15;;;20.70;99.90;;;;;;5043837;28;20029;-72
2021/06/15 09:55:04;;;;;;;1.33;0.50;;;20.70;99.90;;;;;;5043763;28;20105;-71
2021/06/15 09:57:33;;;;;;;3.40;1.23;;;20.80;99.90;;;;;;5044772;28;20059;-71
2021/06/15 10:00:16;;;;;;;2.38;0.57;;;20.90;99.90;;;;;;5044177;28;20084;-71
2021/06/15 10:02:46;;;;;;;7.05;1.35;;;21.10;99.90;;;;;;5043493;28;20086;-71
2021/06/15 10:05:22;;;;;;;2.40;0.93;;;21.00;99.90;;;;;;5045151;28;20112;-70
2021/06/15 10:07:48;;;;;;;11.63;0.77;;;21.00;99.90;;;;;;5057041;28;20041;-72
2021/06/15 10:10:19;;;;;;;1.58;0.50;;;21.20;99.90;;;;;;5061529;28;20052;-70
2021/06/15 10:12:46;;;;;;;3.25;0.93;;;21.40;99.90;;;;;;5058049;28;20036;-71
2021/06/15 10:15:12;;;;;;;0.55;0.40;;;21.60;99.90;;;;;;5059225;28;20037;-70
2021/06/15 10:17:39;;;;;;;6.05;1.05;;;21.40;99.90;;;;;;5062464;28;20045;-72
2021/06/15 10:20:06;;;;;;;0.65;0.55;;;21.30;99.90;;;;;;5047164;28;20025;-72
2021/06/15 10:22:32;;;;;;;4.30;0.73;;;21.30;99.90;;;;;;5045200;28;20078;-71
2021/06/15 10:24:57;;;;;;;0.85;0.52;;;21.30;99.90;;;;;;5062079;28;20030;-72
2021/06/15 10:27:23;;;;;;;0.60;0.50;;;21.40;99.90;;;;;;5047023;28;20037;-70
2021/06/15 10:29:53;;;;;;;0.20;0.17;;;21.50;99.90;;;;;;5046602;28;20025;-73
2021/06/15 10:32:22;;;;;;;2.00;0.77;;;21.80;99.90;;;;;;5046861;28;20028;-71
2021/06/15 10:34:54;;;;;;;1.33;0.50;;;21.80;99.90;;;;;;5061893;28;20033;-71
2021/06/15 10:37:35;;;;;;;5.85;0.98;;;21.90;99.90;;;;;;5046591;28;20083;-71
2021/06/15 10:40:21;;;;;;;0.35;0.32;;;22.10;99.90;;;;;;5047180;28;20029;-72
2021/06/15 10:43:21;;;;;;;5.68;0.95;;;22.30;99.90;;;;;;5041937;28;20093;-72
2021/06/15 10:46:02;;;;;;;1.80;0.57;;;22.20;99.90;;;;;;5042093;28;20037;-71
2021/06/15 10:48:36;;;;;;;7.88;0.80;;;22.30;99.90;;;;;;5045982;28;20049;-72
2021/06/15 10:51:36;;;;;;;1.83;0.75;;;22.50;99.90;;;;;;5046572;28;20021;-71
2021/06/15 10:54:22;;;;;;;1.17;0.60;;;22.70;99.90;;;;;;5042680;28;20037;-73
2021/06/15 10:57:15;;;;;;;1.63;0.85;;;22.70;99.90;;;;;;5045900;28;20049;-71
2021/06/15 10:59:59;;;;;;;2.67;0.57;;;23.10;99.90;;;;;;5046486;28;20025;-71
2021/06/15 11:02:28;;;;;;;1.40;0.93;;;23.40;99.90;;;;;;5046205;28;20029;-71
2021/06/15 11:04:55;;;;;;;2.28;0.45;;;23.50;99.90;;;;;;5045936;28;20092;-71
2021/06/15 11:07:35;;;;;;;1.25;0.50;;;23.60;99.90;;;;;;5045948;28;20085;-71
2021/06/15 11:10:03;;;;;;;1.67;0.82;;;23.80;99.90;;;;;;5046202;28;20083;-75
2021/06/15 11:12:29;;;;;;;1.92;0.55;;;23.90;99.90;;;;;;5046331;28;20053;-71
2021/06/15 11:15:32;;;;;;;2.70;0.70;;;23.90;99.90;;;;;;5046318;28;20033;-71
2021/06/15 11:17:58;;;;;;;1.48;0.63;;;24.10;99.90;;;;;;5023576;28;20127;-71
2021/06/15 11:20:30;;;;;;;3.97;0.40;;;24.20;99.90;;;;;;5041695;28;20080;-71
2021/06/15 11:23:24;;;;;;;0.98;0.50;;;24.40;99.90;;;;;;5044762;28;20433;-71
2021/06/15 11:26:00;;;;;;;2.88;0.75;;;24.70;99.90;;;;;;5044634;28;20457;-71
2021/06/15 11:28:43;;;;;;;2.85;0.80;;;24.80;99.90;;;;;;5045956;28;20041;-71
2021/06/15 11:31:18;;;;;;;1.25;0.60;;;25.00;99.90;;;;;;5045746;28;20060;-70
2021/06/15 11:34:03;;;;;;;2.63;0.98;;;25.10;99.90;;;;;;5044885;28;20025;-72
2021/06/15 11:36:39;;;;;;;0.40;0.40;;;25.10;99.90;;;;;;5045738;28;20069;-69
2021/06/15 11:39:27;;;;;;;5.50;0.80;;;25.00;99.90;;;;;;5045156;28;20032;-72
2021/06/15 11:42:17;;;;;;;0.57;0.38;;;25.10;99.90;;;;;;5045849;28;20032;-71
2021/06/15 11:44:55;;;;;;;3.85;0.70;;;25.30;99.90;;;;;;5045635;28;20033;-70
2021/06/15 11:47:55;;;;;;;0.63;0.50;;;25.60;99.90;;;;;;5043407;28;20087;-70
2021/06/15 11:50:33;;;;;;;5.50;0.88;;;25.80;99.90;;;;;;5045514;28;20116;-70
2021/06/15 11:53:00;;;;;;;6.70;0.95;;;26.10;99.90;;;;;;5044304;28;20029;-70
2021/06/15 11:55:33;;;;;;;1.15;0.50;;;25.90;99.60;;;;;;5045341;28;20643;-69
2021/06/15 11:58:08;;;;;;;3.43;0.60;;;25.60;99.90;;;;;;5045471;28;20435;-70
2021/06/15 12:00:57;;;;;;;2.85;0.60;;;25.70;99.90;;;;;;5045390;28;20033;-72
2021/06/15 12:03:26;;;;;;;1.33;0.55;;;25.90;99.90;;;;;;5045449;28;20136;-71
2021/06/15 12:05:56;;;;;;;1.42;0.63;;;26.10;99.90;;;;;;5045060;28;20030;-71
2021/06/15 12:08:27;;;;;;;1.23;0.60;;;26.30;99.90;;;;;;5044830;28;20038;-70
2021/06/15 12:10:53;;;;;;;3.05;0.65;;;26.50;99.90;;;;;;5045335;28;20017;-70
2021/06/15 12:13:23;;;;;;;2.00;0.60;;;26.30;99.10;;;;;;5043824;28;20457;-71
2021/06/15 12:15:59;;;;;;;1.55;0.47;;;26.10;99.90;;;;;;5044906;28;20368;-71
2021/06/15 12:18:31;;;;;;;4.63;0.75;;;26.10;99.40;;;;;;5045142;28;20029;-74
2021/06/15 12:21:01;;;;;;;2.42;0.70;;;26.20;98.50;;;;;;5043911;28;20477;-71
2021/06/15 12:23:30;;;;;;;4.07;0.88;;;26.30;98.60;;;;;;5042939;28;20048;-71
2021/06/15 12:26:05;;;;;;;2.25;1.00;;;26.30;98.90;;;;;;5044232;28;20025;-71
2021/06/15 12:28:31;;;;;;;4.05;0.45;;;26.60;99.90;;;;;;5042859;28;20037;-72
2021/06/15 12:31:15;;;;;;;1.08;0.60;;;26.40;98.40;;;;;;5043942;28;20108;-70
2021/06/15 12:33:42;;;;;;;0.30;0.30;;;26.40;97.30;;;;;;5044762;28;20025;-71
2021/06/15 12:36:14;;;;;;;0.75;0.57;;;26.70;99.90;;;;;;5044304;28;20034;-70
2021/06/15 12:38:41;;;;;;;1.45;0.60;;;26.60;98.40;;;;;;5045058;28;20053;-70
2021/06/15 12:41:26;;;;;;;3.42;1.05;;;26.50;98.10;;;;;;5043354;28;20025;-70
2021/06/15 12:43:53;;;;;;;2.20;0.55;;;26.50;98.40;;;;;;5044555;28;20013;-71
2021/06/15 12:46:30;;;;;;;0.55;0.30;;;26.70;98.40;;;;;;5044169;28;20516;-72
2021/06/15 12:49:05;;;;;;;1.90;0.52;;;26.70;96.90;;;;;;5043851;28;20497;-71
2021/06/15 12:51:45;;;;;;;1.55;0.47;;;26.70;97.40;;;;;;5044353;28;20026;-70
2021/06/15 12:54:39;;;;;;;1.70;0.63;;;26.60;98.30;;;;;;5044687;28;20025;-75
2021/06/15 12:57:07;;;;;;;2.85;0.68;;;26.90;95.50;;;;;;5043364;28;20052;-73
2021/06/15 12:59:40;;;;;;;1.05;0.50;;;27.00;97.60;;;;;;5044381;28;20048;-72
2021/06/15 13:02:23;;;;;;;0.70;0.43;;;27.20;97.90;;;;;;5044522;28;20025;-70
2021/06/15 13:04:57;;;;;;;2.85;0.90;;;27.30;94.90;;;;;;5042905;28;20044;-70
2021/06/15 13:07:27;;;;;;;0.82;0.30;;;27.10;94.50;;;;;;5044507;28;20022;-71